Flight Track Log - Related Links

Times and Time Zones

All times are in EST time to prevent confusion due to time zone crossing. See the AAL994 flight status page for this flight to view local times or setup timezone preferences in your user account.

Time Position Orientation Groundspeed Altitude Reporting Facility
EST Latitude Longitude Course Direction KTS MPH feet Rate Location/Type
Thu 09:24:00 AM 12.3564 -86.0830 21° North  Level FlightAware Approximate
Thu 09:25:00 AM 12.4638 -86.0403 21° North  Level FlightAware Approximate
Thu 09:26:00 AM 12.5712 -85.9977 21° North  Level FlightAware Approximate
Thu 09:27:00 AM 12.6786 -85.9549 21° North  Level FlightAware Approximate
Thu 09:28:00 AM 12.7860 -85.9122 21° North  Level FlightAware Approximate
Thu 09:29:00 AM 12.8934 -85.8694 21° North  Level FlightAware Approximate
Thu 09:30:00 AM 13.0008 -85.8266 21° North  Level FlightAware Approximate
Thu 09:31:00 AM 13.1082 -85.7837 21° North  Level FlightAware Approximate
Thu 09:32:00 AM 13.2156 -85.7408 21° North  Level FlightAware Approximate
Thu 09:33:00 AM 13.3229 -85.6979 21° North  Level FlightAware Approximate
Thu 09:34:00 AM 13.4303 -85.6549 21° North  Level FlightAware Approximate
Thu 09:35:00 AM 13.5376 -85.6118 21° North  Level FlightAware Approximate
Thu 09:36:00 AM 13.6449 -85.5686 21° North  Level Estimated
Thu 09:37:00 AM 13.7523 -85.5256 21° North  Level FlightAware Approximate
Thu 09:38:00 AM 13.8597 -85.4826 21° North  Level FlightAware Approximate
Thu 09:39:00 AM 13.9670 -85.4396 21° North  Level FlightAware Approximate
Thu 09:40:00 AM 14.0744 -85.3964 21° North  Level FlightAware Approximate
Thu 09:41:00 AM 14.1818 -85.3533 21° North  Level FlightAware Approximate
Thu 09:42:00 AM 14.2891 -85.3101 21° North  Level FlightAware Approximate
Thu 09:43:00 AM 14.3981 -85.2662 21° North  Level FlightAware Approximate
Thu 09:44:00 AM 14.5071 -85.2223 21° North  Level FlightAware Approximate
Thu 09:45:00 AM 14.6161 -85.1783 21° North  Level FlightAware Approximate
Thu 09:46:00 AM 14.7251 -85.1343 21° North  Level FlightAware Approximate
Thu 09:47:00 AM 14.8340 -85.0899 21° North  Level Estimated
Thu 09:48:00 AM 14.9431 -85.0463 21° North  Level FlightAware Approximate
Thu 09:49:00 AM 15.0523 -85.0027 21° North  Level FlightAware Approximate
Thu 09:50:00 AM 15.1615 -84.9591 21° North  Level FlightAware Approximate
Thu 09:51:00 AM 15.2706 -84.9154 21° North  Level FlightAware Approximate
Thu 09:52:00 AM 15.3798 -84.8717 21° North  Level FlightAware Approximate
Thu 09:53:00 AM 15.4889 -84.8279 21° North  Level FlightAware Approximate
Thu 09:54:00 AM 15.5981 -84.7841 21° North  Level FlightAware Approximate
Thu 09:55:00 AM 15.7072 -84.7402 21° North  Level FlightAware Approximate
Thu 09:56:00 AM 15.8163 -84.6963 21° North  Level FlightAware Approximate
Thu 09:57:00 AM 15.9255 -84.6524 21° North  Level FlightAware Approximate
Thu 09:58:00 AM 16.0345 -84.6084 21° North  Level FlightAware Approximate
Thu 09:59:00 AM 16.1436 -84.5643 21° North  Level FlightAware Approximate
Thu 10:00:00 AM 16.2527 -84.5202 21° North  Level FlightAware Approximate
Thu 10:01:00 AM 16.3618 -84.4761 21° North  Level FlightAware Approximate
Thu 10:02:00 AM 16.4709 -84.4319 21° North  Level FlightAware Approximate
Thu 10:03:00 AM 16.5799 -84.3876 21° North  Level FlightAware Approximate
Thu 10:04:00 AM 16.6890 -84.3433 21° North  Level FlightAware Approximate
Thu 10:05:00 AM 16.7972 -84.2993 21° North  Level FlightAware Approximate
Thu 10:06:00 AM 16.9049 -84.2542 21° North  Level Estimated
Thu 10:07:00 AM 17.0131 -84.2101 21° North  Level FlightAware Approximate
Thu 10:08:00 AM 17.1213 -84.1660 21° North  Level FlightAware Approximate
Thu 10:09:00 AM 17.2295 -84.1219 21° North  Level FlightAware Approximate
Thu 10:10:00 AM 17.3376 -84.0777 21° North  Level FlightAware Approximate
Thu 10:11:00 AM 17.4458 -84.0334 21° North  Level FlightAware Approximate
Thu 10:12:00 AM 17.5539 -83.9891 21° North  Level FlightAware Approximate
Thu 10:13:00 AM 17.6621 -83.9447 21° North  Level FlightAware Approximate
Thu 10:14:00 AM 17.7702 -83.9003 21° North  Level FlightAware Approximate
Thu 10:15:00 AM 17.8783 -83.8558 21° North  Level FlightAware Approximate
Thu 10:16:00 AM 17.9865 -83.8113 21° North  Level FlightAware Approximate
Thu 10:17:00 AM 18.0945 -83.7667 21° North  Level FlightAware Approximate
Thu 10:18:00 AM 18.2026 -83.7221 21° North  Level FlightAware Approximate
Thu 10:19:00 AM 18.3107 -83.6774 21° North  Level FlightAware Approximate
Thu 10:20:00 AM 18.4188 -83.6327 21° North  Level FlightAware Approximate
Thu 10:21:00 AM 18.5268 -83.5879 21° North  Level FlightAware Approximate
Thu 10:22:00 AM 18.6349 -83.5430 21° North  Level FlightAware Approximate
Thu 10:23:00 AM 18.7429 -83.4981 21° North  Level FlightAware Approximate
Thu 10:24:00 AM 18.8509 -83.4531 22° Northeast  Level FlightAware Approximate
Thu 10:25:00 AM 18.9589 -83.4081 22° Northeast  Level FlightAware Approximate
Thu 10:26:00 AM 19.0669 -83.3630 22° Northeast  Level FlightAware Approximate
Thu 10:27:00 AM 19.1749 -83.3178 22° Northeast  Level FlightAware Approximate
Thu 10:28:00 AM 19.2829 -83.2726 22° Northeast  Level FlightAware Approximate
Thu 10:29:00 AM 19.3909 -83.2273 22° Northeast  Level FlightAware Approximate
Thu 10:30:00 AM 19.4988 -83.1820 22° Northeast  Level FlightAware Approximate
Thu 10:31:00 AM 19.6061 -83.1350 22° Northeast  Level Estimated
Thu 10:32:00 AM 19.7140 -83.0894 22° Northeast  Level FlightAware Approximate
Thu 10:33:00 AM 19.8219 -83.0438 22° Northeast  Level FlightAware Approximate
Thu 10:34:00 AM 19.9298 -82.9981 22° Northeast  Level FlightAware Approximate
Thu 10:35:00 AM 20.0376 -82.9523 22° Northeast  Level FlightAware Approximate
Thu 10:36:00 AM 20.1448 -82.9049 22° Northeast  Level Estimated
Thu 10:37:00 AM 20.2527 -82.8590 22° Northeast  Level FlightAware Approximate
Thu 10:38:00 AM 20.3605 -82.8130 22° Northeast  Level FlightAware Approximate
Thu 10:39:00 AM 20.4683 -82.7670 22° Northeast  Level FlightAware Approximate
Thu 10:40:00 AM 20.5760 -82.7209 22° Northeast  Level FlightAware Approximate
Thu 10:41:00 AM 20.6838 -82.6747 22° Northeast  Level FlightAware Approximate
Thu 10:42:00 AM 20.7916 -82.6284 22° Northeast  Level FlightAware Approximate
Thu 10:43:00 AM 20.8993 -82.5822 22° Northeast  Level FlightAware Approximate
Thu 10:44:00 AM 21.0070 -82.5358 22° Northeast  Level FlightAware Approximate
Thu 10:45:00 AM 21.1148 -82.4893 22° Northeast  Level FlightAware Approximate
Thu 10:46:00 AM 21.2225 -82.4428 22° Northeast  Level FlightAware Approximate
Thu 10:47:00 AM 21.3302 -82.3963 22° Northeast  Level FlightAware Approximate
Thu 10:48:00 AM 21.4379 -82.3496 22° Northeast  Level FlightAware Approximate
Thu 10:49:00 AM 21.5455 -82.3029 22° Northeast  Level FlightAware Approximate
Thu 10:50:00 AM 21.6532 -82.2561 22° Northeast  Level FlightAware Approximate
Thu 10:51:00 AM 21.7608 -82.2093 22° Northeast  Level FlightAware Approximate
Thu 10:52:00 AM 21.8685 -82.1624 22° Northeast  Level FlightAware Approximate
Thu 10:53:00 AM 21.9761 -82.1154 22° Northeast  Level FlightAware Approximate
Thu 10:54:00 AM 22.0837 -82.0683 22° Northeast  Level FlightAware Approximate
Thu 10:55:00 AM 22.1913 -82.0212 22° Northeast  Level FlightAware Approximate
Thu 10:56:00 AM 22.2988 -81.9740 22° Northeast  Level FlightAware Approximate
Thu 10:57:00 AM 22.4064 -81.9267 22° Northeast  Level FlightAware Approximate
Thu 10:58:00 AM 22.5140 -81.8785 22° Northeast  Level FlightAware Approximate
Thu 10:59:00 AM 22.6216 -81.8302 23° Northeast  Level FlightAware Approximate
Thu 10:59:27 AM 23.1775 -81.4164 23° Northeast 466 536 33,900  Level Miami Center
Thu 11:00:00 AM 22.7291 -81.7819 23° Northeast  Level FlightAware Approximate
Thu 11:00:27 AM 23.3017 -81.3867 12° North 466 536 34,000  Level Miami Center
Thu 11:01:00 AM 22.8367 -81.7334 23° Northeast  Level FlightAware Approximate
Thu 11:01:27 AM 23.4236 -81.3594 12° North 454 522 33,900  Level Miami Center
Thu 11:02:00 AM 22.9443 -81.6849 23° Northeast  Level FlightAware Approximate
Thu 11:02:27 AM 23.5456 -81.3297 13° North 448 516 34,000  Level Miami Center
Thu 11:03:00 AM 23.0519 -81.6363 23° Northeast  Level FlightAware Approximate
Thu 11:03:27 AM 23.6697 -81.2978 13° North 448 516 34,000  Level Miami Center
Thu 11:04:27 AM 23.7833 -81.2700 13° North 453 521 34,000 -50 Level Miami Center
Thu 11:05:27 AM 23.9200 -81.2383 12° North 453 521 33,900 -100 Descending Miami Center
Thu 11:06:27 AM 24.0464 -81.2064 13° North 453 521 33,800 -500 Descending Miami Center
Thu 11:07:27 AM 24.1744 -81.1792 11° North 453 521 32,900 -1,150 Descending Miami Center
Thu 11:08:27 AM 24.3006 -81.1561 North 453 521 31,500 -1,300 Descending Miami Center
Thu 11:09:27 AM 24.4286 -81.1331 North 453 521 30,300 -1,150 Descending Miami Center
Thu 11:10:27 AM 24.5544 -81.1078 10° North 453 521 29,200 -1,750 Descending Miami Center
Thu 11:11:27 AM 24.6828 -81.0825 10° North 453 521 26,800 -2,500 Descending Miami Center
Thu 11:12:27 AM 24.8067 -81.0569 11° North 453 521 24,200 -2,500 Descending Miami Center
Thu 11:13:27 AM 24.9264 -81.0336 10° North 448 516 21,800 -2,400 Descending Miami Center
Thu 11:14:27 AM 25.0419 -81.0100 10° North 435 501 19,400 -2,200 Descending Miami Center
Thu 11:15:27 AM 25.1511 -80.9883 10° North 418 481 17,400 -2,300 Descending Miami Center
Thu 11:16:27 AM 25.2583 -80.9667 10° North 403 464 14,800 -2,410 Descending Miami Center
Thu 11:17:29 AM 25.3633 -80.9472 North 377 434 12,500 -2,150 Descending Miami Center
Thu 11:18:27 AM 25.4597 -80.9275 10° North 365 420 10,500 -1,435 Descending Miami Center
Thu 11:19:01 AM 25.5081 -80.9175 11° North 342 394 10,300 -500 Descending Miami Center
Thu 11:19:27 AM 25.5483 -80.9053 15° North 345 397 10,000 -627 Descending Miami Center
Thu 11:20:08 AM 25.5747 -80.8553 60° Northeast 279 321 9,600 -700 Descending Miami Center
Thu 11:20:27 AM 25.5919 -80.8375 43° Northeast 280 322 9,300 -536 Descending Miami Center
Thu 11:21:04 AM 25.6358 -80.8367 North 243 280 9,100 -500 Descending Miami Center
Thu 11:21:27 AM 25.6628 -80.8375 358° North 243 280 8,800 -896 Descending Miami Center
Thu 11:22:11 AM 25.7086 -80.8414 356° North 232 267 8,100 -800 Descending Miami Center
Thu 11:22:27 AM 25.7214 -80.8372 16° North 237 273 8,000 -787 Descending Miami Center
Thu 11:23:12 AM 25.7494 -80.7967 52° Northeast 226 260 7,300 -800 Descending Miami Center
Thu 11:23:27 AM 25.7603 -80.7878 36° Northeast 200 230 7,200 -774 Descending Miami Center
Thu 11:24:14 AM 25.7617 -80.7347 88° East 190 219 6,500 -700 Descending Miami Center
Thu 11:24:27 AM 25.7703 -80.7281 35° Northeast 185 213 6,500 -1,091 Level Miami Center
Thu 11:25:09 AM 25.7672 -80.6819 94° East 187 215 5,500 -1,200 Descending Miami Center
Thu 11:25:27 AM 25.7717 -80.6683 70° East 178 205 5,300 -968 Descending Miami Center
Thu 11:26:11 AM 25.7708 -80.6244 91° East 187 215 4,500 -1,000 Descending Miami Center
Thu 11:26:27 AM 25.7733 -80.6106 79° East 178 205 4,300 -1,075 Descending Miami Center
Thu 11:27:18 AM 25.7703 -80.5597 94° East 182 209 3,300 -729 Descending Miami Center
Thu 11:28:14 AM 25.7758 -80.5092 83° East 180 207 3,000 -462 Descending Miami Center
Thu 11:29:15 AM 25.7772 -80.4539 88° East 182 209 2,400 -724 Descending Miami Center
Thu 11:30:10 AM 25.7806 -80.4031 86° East 177 204 1,600 -879 Descending Miami Center
Thu 11:31:11 AM 25.7817 -80.3547 89° East 149 171 700 -885 Descending Miami Center

Login

Don't have an account? Register now (free) for customized features, flight alerts, and more!